createdAt,value
2022-08-28T00:00:41.714Z,101904.22
2022-08-28T00:03:13.298Z,101905.25
2022-08-28T00:05:42.783Z,101904.34
2022-08-28T00:08:13.985Z,101908.81
2022-08-28T00:10:43.673Z,101902.59
2022-08-28T00:13:18.518Z,101876.41
2022-08-28T00:15:49.293Z,101903.75
2022-08-28T00:18:19.395Z,101895.69
2022-08-28T00:20:48.964Z,101907.44
2022-08-28T00:23:18.141Z,101902.16
2022-08-28T00:25:46.480Z,101904.91
2022-08-28T00:28:23.589Z,101905.16
2022-08-28T00:30:55.669Z,101902.47
2022-08-28T00:33:29.382Z,101898.09
2022-08-28T00:35:58.997Z,101909.28
2022-08-28T00:38:29.450Z,101913.00
2022-08-28T00:41:03.970Z,101919.22
2022-08-28T00:43:42.454Z,101913.16
2022-08-28T00:46:14.310Z,101912.19
2022-08-28T00:48:44.210Z,101914.97
2022-08-28T00:51:45.765Z,101918.41
2022-08-28T00:54:14.287Z,101888.41
2022-08-28T00:56:44.728Z,101917.50
2022-08-28T00:59:18.205Z,101801.84
2022-08-28T01:01:48.543Z,101912.03
2022-08-28T01:04:21.664Z,101911.97
2022-08-28T01:06:53.512Z,101918.25
2022-08-28T01:09:24.450Z,101920.94
2022-08-28T01:11:57.514Z,101910.28
2022-08-28T01:14:26.954Z,101841.59
2022-08-28T01:16:56.152Z,101906.81
2022-08-28T01:19:33.410Z,101904.13
2022-08-28T01:22:16.612Z,101904.97
2022-08-28T01:24:48.674Z,101898.00
2022-08-28T01:27:17.297Z,101899.59
2022-08-28T01:29:45.681Z,101903.41
2022-08-28T01:32:30.423Z,101902.38
2022-08-28T01:34:58.902Z,101905.13
2022-08-28T01:37:27.182Z,101898.94
2022-08-28T01:39:56.984Z,101893.53
2022-08-28T01:42:26.078Z,101897.97
2022-08-28T01:44:54.903Z,101897.97
2022-08-28T01:47:23.882Z,101903.28
2022-08-28T01:49:52.151Z,101899.78
2022-08-28T01:52:25.460Z,101910.53
2022-08-28T01:54:56.379Z,101923.97
2022-08-28T01:57:27.369Z,101912.47
2022-08-28T01:59:55.989Z,101916.06
2022-08-28T02:02:24.592Z,101913.31
2022-08-28T02:04:53.873Z,101915.13
2022-08-28T02:07:22.137Z,101914.22
2022-08-28T02:09:50.438Z,101915.16
2022-08-28T02:12:20.633Z,101912.59
2022-08-28T02:14:48.940Z,101916.25
2022-08-28T02:17:17.178Z,101918.94
2022-08-28T02:19:45.405Z,101920.91
2022-08-28T02:22:13.707Z,101921.78
2022-08-28T02:24:42.040Z,101925.50
2022-08-28T02:27:10.623Z,101927.28
2022-08-28T02:29:40.780Z,101929.22
2022-08-28T02:32:09.211Z,101920.41
2022-08-28T02:34:39.166Z,101927.47
2022-08-28T02:37:08.729Z,101921.22
2022-08-28T02:39:37.111Z,101918.63
2022-08-28T02:42:05.707Z,101918.56
2022-08-28T02:44:35.388Z,101895.66
2022-08-28T02:47:06.046Z,101923.00
2022-08-28T02:49:36.127Z,101927.53
2022-08-28T02:52:06.858Z,101926.72
2022-08-28T02:54:37.239Z,101930.34
2022-08-28T02:57:06.698Z,101932.00
2022-08-28T02:59:35.076Z,101938.13
2022-08-28T03:02:07.100Z,101931.94
2022-08-28T03:04:36.560Z,101934.69
2022-08-28T03:07:07.381Z,101938.41
2022-08-28T03:09:35.807Z,101933.97
2022-08-28T03:12:05.142Z,101931.28
2022-08-28T03:14:33.430Z,101925.97
2022-08-28T03:17:01.783Z,101931.28
2022-08-28T03:19:31.440Z,101940.28
2022-08-28T03:21:59.754Z,101934.06
2022-08-28T03:24:28.042Z,101942.97
2022-08-28T03:26:56.286Z,101933.19
2022-08-28T03:29:24.573Z,101934.97
2022-08-28T03:31:52.907Z,101934.97
2022-08-28T03:34:21.141Z,101934.03
2022-08-28T03:36:50.870Z,101936.72
2022-08-28T03:39:19.293Z,101914.69
2022-08-28T03:41:47.575Z,101944.84
2022-08-28T03:44:16.690Z,101942.22
2022-08-28T03:46:44.887Z,101943.97
2022-08-28T03:49:13.513Z,101947.63
2022-08-28T03:51:43.151Z,101948.56
2022-08-28T03:54:12.784Z,101947.78
2022-08-28T03:56:43.483Z,101943.34
2022-08-28T03:59:11.617Z,101945.16
2022-08-28T04:01:40.493Z,101954.13
2022-08-28T04:04:09.045Z,101954.94
2022-08-28T04:06:38.559Z,101958.59
2022-08-28T04:09:07.261Z,101961.31
2022-08-28T04:11:42.512Z,101958.66
2022-08-28T04:14:11.441Z,101962.22
2022-08-28T04:16:39.774Z,101956.75
2022-08-28T04:19:08.157Z,101958.59
2022-08-28T04:21:36.432Z,101951.50
2022-08-28T04:24:09.374Z,101963.28
2022-08-28T04:26:39.611Z,101956.16
2022-08-28T04:29:08.939Z,101961.50
2022-08-28T04:31:37.710Z,101961.53
2022-08-28T04:34:10.464Z,101963.28
2022-08-28T04:36:39.372Z,101959.56
2022-08-28T04:39:10.217Z,101961.44
2022-08-28T04:41:40.069Z,101950.72
2022-08-28T04:44:09.566Z,101961.13
2022-08-28T04:46:38.556Z,101924.81
2022-08-28T04:49:06.923Z,101964.63
2022-08-28T04:51:37.837Z,101967.41
2022-08-28T04:54:10.766Z,101975.31
2022-08-28T04:56:41.647Z,101971.59
2022-08-28T04:59:10.279Z,101980.50
2022-08-28T05:01:39.107Z,101973.28
2022-08-28T05:04:07.960Z,101977.41
2022-08-28T05:06:36.211Z,101980.94
2022-08-28T05:09:05.742Z,101981.78
2022-08-28T05:11:35.208Z,101985.41
2022-08-28T05:14:07.230Z,101984.47
2022-08-28T05:16:42.879Z,101992.44
2022-08-28T05:19:12.364Z,101992.47
2022-08-28T05:21:40.610Z,101982.75
2022-08-28T05:24:10.010Z,102002.25
2022-08-28T05:26:40.067Z,101991.59
2022-08-28T05:29:11.066Z,101993.13
2022-08-28T05:31:41.755Z,101987.75
2022-08-28T05:34:10.667Z,101996.72
2022-08-28T05:36:40.069Z,102006.56
2022-08-28T05:39:12.183Z,101994.94
2022-08-28T05:41:43.414Z,102008.88
2022-08-28T05:44:15.895Z,102006.09
2022-08-28T05:46:48.461Z,102002.41
2022-08-28T05:49:18.207Z,102005.97
2022-08-28T05:51:47.286Z,102008.31
2022-08-28T05:54:16.746Z,102004.63
2022-08-28T05:56:46.892Z,101962.16
2022-08-28T05:59:17.445Z,101999.94
2022-08-28T06:01:48.591Z,102006.84
2022-08-28T06:04:19.768Z,101997.84
2022-08-28T06:06:49.433Z,102007.28
2022-08-28T06:09:25.341Z,102008.78
2022-08-28T06:11:58.783Z,102017.84
2022-08-28T06:14:29.729Z,102007.22
2022-08-28T06:16:59.638Z,102006.59
2022-08-28T06:19:30.881Z,102011.94
2022-08-28T06:22:07.007Z,102015.88
2022-08-28T06:24:36.480Z,102000.22
2022-08-28T06:27:04.907Z,102021.94
2022-08-28T06:29:34.579Z,102032.09
2022-08-28T06:32:05.395Z,102022.66
2022-08-28T06:34:34.123Z,102029.66
2022-08-28T06:37:02.370Z,102033.91
2022-08-28T06:39:30.830Z,102029.75
2022-08-28T06:41:59.046Z,102032.31
2022-08-28T06:44:27.904Z,102038.97
2022-08-28T06:46:57.771Z,102039.84
2022-08-28T06:49:26.058Z,102042.78
2022-08-28T06:51:55.932Z,102037.34
2022-08-28T06:54:24.241Z,102037.59
2022-08-28T06:56:53.360Z,102038.00
2022-08-28T06:59:21.710Z,102044.75
2022-08-28T07:01:53.610Z,102037.16
2022-08-28T07:04:23.436Z,102053.06
2022-08-28T07:06:54.643Z,102048.84
2022-08-28T07:09:24.049Z,102056.63
2022-08-28T07:11:52.505Z,102055.09
2022-08-28T07:14:20.851Z,102050.09
2022-08-28T07:16:49.126Z,102056.25
2022-08-28T07:19:17.719Z,102034.13
2022-08-28T07:21:48.154Z,102061.81
2022-08-28T07:24:18.051Z,102057.94
2022-08-28T07:26:47.873Z,102061.56
2022-08-28T07:29:16.547Z,102066.34
2022-08-28T07:31:48.256Z,102049.63
2022-08-28T07:34:19.304Z,102071.28
2022-08-28T07:36:51.867Z,102074.25
2022-08-28T07:39:20.593Z,102077.97
2022-08-28T07:41:51.894Z,102084.66
2022-08-28T07:44:38.087Z,102083.66
2022-08-28T07:47:08.748Z,102083.97
2022-08-28T07:49:37.429Z,102082.47
2022-08-28T07:52:08.307Z,102083.41
2022-08-28T07:54:37.661Z,102088.81
2022-08-28T07:57:07.607Z,102082.25
2022-08-28T07:59:36.968Z,102090.00
2022-08-28T08:02:06.552Z,102092.44
2022-08-28T08:04:35.240Z,102085.09
2022-08-28T08:07:06.092Z,102099.44
2022-08-28T08:09:38.651Z,102099.59
2022-08-28T08:12:07.969Z,102104.31
2022-08-28T08:14:39.267Z,102092.84
2022-08-28T08:17:08.167Z,102109.56
2022-08-28T08:19:37.572Z,102107.81
2022-08-28T08:22:07.299Z,102113.56
2022-08-28T08:24:35.864Z,102117.91
2022-08-28T08:27:06.664Z,102086.34
2022-08-28T08:29:37.799Z,102113.94
2022-08-28T08:32:09.094Z,102107.81
2022-08-28T08:34:43.867Z,102116.97
2022-08-28T08:37:14.231Z,102104.84
2022-08-28T08:39:44.236Z,102105.09
2022-08-28T08:42:24.545Z,102111.53
2022-08-28T08:44:55.789Z,102102.19
2022-08-28T08:47:32.203Z,102110.25
2022-08-28T08:50:03.751Z,102105.72
2022-08-28T08:52:39.911Z,102101.06
2022-08-28T08:55:28.127Z,102095.78
2022-08-28T08:58:06.659Z,102113.34
2022-08-28T09:00:52.590Z,102098.47
2022-08-28T09:03:25.593Z,102095.97
2022-08-28T09:05:58.133Z,102097.72
2022-08-28T09:08:38.075Z,102100.69
2022-08-28T09:11:24.538Z,102107.47
2022-08-28T09:14:00.334Z,102097.03
2022-08-28T09:16:33.830Z,102103.09
2022-08-28T09:19:02.935Z,102106.22
2022-08-28T09:21:35.842Z,102001.38
2022-08-28T09:24:11.002Z,102082.72
2022-08-28T09:26:41.397Z,102101.53
2022-08-28T09:29:18.562Z,102100.25
2022-08-28T09:31:46.835Z,102106.09
2022-08-28T09:34:23.941Z,102102.03
2022-08-28T09:36:53.739Z,102091.38
2022-08-28T09:39:26.619Z,102095.63
2022-08-28T09:42:34.150Z,102097.00
2022-08-28T09:45:09.441Z,102096.38
2022-08-28T09:47:48.649Z,102102.88
2022-08-28T09:50:27.430Z,102096.53
2022-08-28T09:52:58.962Z,102092.78
2022-08-28T09:55:37.669Z,102089.16
2022-08-28T09:58:07.230Z,102092.63
2022-08-28T10:00:39.159Z,102089.34
2022-08-28T10:03:15.932Z,102094.59
2022-08-28T10:06:04.129Z,102093.94
2022-08-28T10:09:03.233Z,102101.88
2022-08-28T10:11:52.026Z,102099.97
2022-08-28T10:14:42.938Z,102100.09
2022-08-28T10:17:26.792Z,102099.22
2022-08-28T10:20:03.086Z,102098.69
2022-08-28T10:22:42.251Z,102097.84
2022-08-28T10:25:26.748Z,102098.41
2022-08-28T10:28:15.322Z,102097.91
2022-08-28T10:30:57.117Z,102094.09
2022-08-28T10:33:50.401Z,102093.47
2022-08-28T10:36:33.911Z,102092.06
2022-08-28T10:39:24.604Z,102091.31
2022-08-28T10:41:57.686Z,102092.72
2022-08-28T10:44:35.665Z,102090.06
2022-08-28T10:47:05.636Z,102084.34
2022-08-28T10:49:39.239Z,102104.22
2022-08-28T10:52:12.602Z,102092.81
2022-08-28T10:54:47.849Z,102101.56
2022-08-28T10:57:31.068Z,102111.53
2022-08-28T11:00:06.591Z,102105.91
2022-08-28T11:02:35.660Z,102110.09
2022-08-28T11:05:05.219Z,102089.84
2022-08-28T11:07:39.107Z,102102.03
2022-08-28T11:10:22.935Z,102114.78
2022-08-28T11:12:52.972Z,102098.78
2022-08-28T11:15:47.492Z,102115.03
2022-08-28T11:18:56.858Z,102109.28
2022-08-28T11:21:28.909Z,102107.91
2022-08-28T11:24:07.608Z,102113.16
2022-08-28T11:26:47.125Z,102103.50
2022-08-28T11:30:02.457Z,102105.19
2022-08-28T11:33:30.755Z,102094.22
2022-08-28T11:36:00.430Z,102092.44
2022-08-28T11:39:06.170Z,102082.66
2022-08-28T11:41:38.453Z,102105.41
2022-08-28T11:44:30.321Z,102090.72
2022-08-28T11:47:46.842Z,102100.34
2022-08-28T11:50:34.807Z,102101.94
2022-08-28T11:53:38.081Z,102097.78
2022-08-28T11:56:37.809Z,102103.41
2022-08-28T11:59:38.437Z,102103.78
2022-08-28T12:02:49.615Z,102103.91
2022-08-28T12:05:40.607Z,102114.56
2022-08-28T12:08:11.912Z,102109.63
2022-08-28T12:10:59.722Z,102110.16
2022-08-28T12:13:49.747Z,102107.75
2022-08-28T12:16:18.442Z,102112.28
2022-08-28T12:19:09.254Z,102097.09
2022-08-28T12:21:42.684Z,102101.81
2022-08-28T12:24:22.399Z,102108.41
2022-08-28T12:26:57.216Z,102105.75
2022-08-28T12:29:32.054Z,102108.63
2022-08-28T12:32:30.227Z,102099.75
2022-08-28T12:35:20.947Z,102098.34
2022-08-28T12:38:02.596Z,102087.56
2022-08-28T12:40:50.229Z,102105.97
2022-08-28T12:43:34.514Z,102103.16
2022-08-28T12:46:06.974Z,102098.50
2022-08-28T12:48:52.420Z,102103.63
2022-08-28T12:51:25.661Z,102104.81
2022-08-28T12:53:57.217Z,102084.97
2022-08-28T12:56:29.988Z,102095.88
2022-08-28T12:59:34.329Z,102095.75
2022-08-28T13:02:04.715Z,102092.78
2022-08-28T13:04:36.233Z,102090.88
2022-08-28T13:07:11.886Z,102086.03
2022-08-28T13:09:48.514Z,102084.28
2022-08-28T13:12:29.031Z,102076.94
2022-08-28T13:15:13.690Z,102079.88
2022-08-28T13:17:54.874Z,102082.50
2022-08-28T13:20:29.916Z,102085.91
2022-08-28T13:22:59.157Z,102083.41
2022-08-28T13:25:30.525Z,102081.84
2022-08-28T13:28:02.949Z,102079.69
2022-08-28T13:30:35.028Z,102088.41
2022-08-28T13:33:17.348Z,102090.47
2022-08-28T13:35:46.840Z,102081.50
2022-08-28T13:38:18.354Z,102088.00
2022-08-28T13:40:58.529Z,102079.13
2022-08-28T13:43:31.295Z,102086.31
2022-08-28T13:46:01.011Z,102082.91
2022-08-28T13:48:30.064Z,102077.91
2022-08-28T13:51:04.848Z,102080.75
2022-08-28T13:53:33.663Z,102079.59
2022-08-28T13:56:02.947Z,102078.56
2022-08-28T13:58:31.264Z,102073.44
2022-08-28T14:01:01.283Z,102049.06
2022-08-28T14:03:38.577Z,102069.91
2022-08-28T14:06:11.564Z,102067.84
2022-08-28T14:08:41.353Z,102069.06
2022-08-28T14:11:12.647Z,102065.31
2022-08-28T14:13:47.151Z,102054.69
2022-08-28T14:16:26.138Z,102065.16
2022-08-28T14:18:54.749Z,102055.09
2022-08-28T14:21:24.420Z,102063.84
2022-08-28T14:23:52.827Z,102071.03
2022-08-28T14:26:21.291Z,102065.78
2022-08-28T14:28:49.628Z,102066.88
2022-08-28T14:31:18.170Z,102068.53
2022-08-28T14:33:48.222Z,102073.31
2022-08-28T14:36:17.938Z,102066.06
2022-08-28T14:38:46.271Z,102070.22
2022-08-28T14:41:15.211Z,102069.25
2022-08-28T14:43:43.509Z,102067.84
2022-08-28T14:46:16.896Z,102064.50
2022-08-28T14:48:45.319Z,102068.91
2022-08-28T14:51:15.251Z,102070.66
2022-08-28T14:53:44.411Z,102064.63
2022-08-28T14:56:13.028Z,102058.28
2022-08-28T14:58:41.586Z,102061.78
2022-08-28T15:01:09.978Z,102060.47
2022-08-28T15:03:38.343Z,102054.25
2022-08-28T15:06:09.126Z,102055.25
2022-08-28T15:08:39.785Z,102059.59
2022-08-28T15:11:09.326Z,102063.84
2022-08-28T15:13:37.878Z,102063.09
2022-08-28T15:16:15.676Z,102054.97
2022-08-28T15:18:46.429Z,102042.75
2022-08-28T15:21:21.164Z,102060.94
2022-08-28T15:23:52.851Z,102062.38
2022-08-28T15:26:23.740Z,102026.56
2022-08-28T15:28:55.677Z,102058.34
2022-08-28T15:31:24.995Z,102048.41
2022-08-28T15:33:53.556Z,102048.56
2022-08-28T15:36:22.138Z,102045.84
2022-08-28T15:39:09.365Z,102028.19
2022-08-28T15:41:38.473Z,102038.19
2022-08-28T15:44:06.859Z,102045.41
2022-08-28T15:46:36.403Z,102049.38
2022-08-28T15:49:07.922Z,102043.00
2022-08-28T15:51:37.757Z,102044.31
2022-08-28T15:54:07.560Z,102046.94
2022-08-28T15:56:35.817Z,102046.69
2022-08-28T15:59:04.162Z,102055.16
2022-08-28T16:01:32.482Z,102030.25
2022-08-28T16:04:00.933Z,102041.53
2022-08-28T16:06:29.879Z,102053.03
2022-08-28T16:08:58.596Z,102055.88
2022-08-28T16:11:28.688Z,102052.97
2022-08-28T16:14:04.560Z,102042.19
2022-08-28T16:16:33.679Z,102043.63
2022-08-28T16:19:02.123Z,102053.84
2022-08-28T16:21:30.489Z,102052.38
2022-08-28T16:23:59.116Z,102047.09
2022-08-28T16:26:29.364Z,102052.44
2022-08-28T16:28:57.832Z,102061.47
2022-08-28T16:31:27.136Z,102068.50
2022-08-28T16:33:55.506Z,102049.22
2022-08-28T16:36:25.195Z,102056.78
2022-08-28T16:39:00.396Z,102055.88
2022-08-28T16:41:33.551Z,102057.78
2022-08-28T16:44:01.887Z,102058.88
2022-08-28T16:46:30.566Z,102040.59
2022-08-28T16:48:59.645Z,102052.78
2022-08-28T16:51:29.430Z,102059.34
2022-08-28T16:53:58.634Z,102051.50
2022-08-28T16:56:26.908Z,102048.28
2022-08-28T16:58:57.021Z,102046.59
2022-08-28T17:01:25.766Z,102051.00
2022-08-28T17:03:55.378Z,102051.19
2022-08-28T17:06:27.268Z,102050.38
2022-08-28T17:08:57.297Z,102058.91
2022-08-28T17:11:26.796Z,102052.78
2022-08-28T17:13:57.306Z,102052.03
2022-08-28T17:16:26.318Z,102055.22
2022-08-28T17:18:54.714Z,102041.97
2022-08-28T17:21:41.408Z,102028.06
2022-08-28T17:24:12.437Z,102042.72
2022-08-28T17:26:41.224Z,102051.22
2022-08-28T17:29:11.564Z,102025.06
2022-08-28T17:31:40.039Z,102055.75
2022-08-28T17:34:08.621Z,102052.22
2022-08-28T17:36:38.655Z,102062.06
2022-08-28T17:39:11.537Z,102052.28
2022-08-28T17:41:41.609Z,102050.72
2022-08-28T17:44:11.805Z,102043.66
2022-08-28T17:46:40.160Z,102048.34
2022-08-28T17:49:09.229Z,102049.41
2022-08-28T17:51:42.331Z,102048.72
2022-08-28T17:54:13.502Z,102050.53
2022-08-28T17:56:42.025Z,102062.22
2022-08-28T17:59:12.489Z,102038.84
2022-08-28T18:01:42.646Z,102044.13
2022-08-28T18:04:11.218Z,102037.50
2022-08-28T18:06:40.349Z,102044.75
2022-08-28T18:09:10.272Z,102003.53
2022-08-28T18:11:39.109Z,102052.00
2022-08-28T18:14:10.854Z,102032.25
2022-08-28T18:16:40.057Z,102029.88
2022-08-28T18:19:10.656Z,102056.63
2022-08-28T18:21:39.325Z,102055.84
2022-08-28T18:24:08.847Z,102055.75
2022-08-28T18:26:37.432Z,102052.28
2022-08-28T18:29:06.336Z,102053.25
2022-08-28T18:31:36.112Z,102058.44
2022-08-28T18:34:04.606Z,102062.25
2022-08-28T18:36:32.866Z,102061.31
2022-08-28T18:39:04.217Z,102061.38
2022-08-28T18:41:35.745Z,102055.91
2022-08-28T18:44:14.138Z,102055.00
2022-08-28T18:46:44.939Z,102061.53
2022-08-28T18:49:14.130Z,102060.91
2022-08-28T18:51:44.218Z,102068.16
2022-08-28T18:54:14.414Z,102058.19
2022-08-28T18:56:45.449Z,102068.19
2022-08-28T18:59:13.824Z,102058.34
2022-08-28T19:01:43.872Z,102055.00
2022-08-28T19:04:12.414Z,102070.25
2022-08-28T19:06:42.553Z,102080.22
2022-08-28T19:09:19.360Z,102077.53
2022-08-28T19:11:49.271Z,102075.75
2022-08-28T19:14:17.729Z,102079.63
2022-08-28T19:16:47.650Z,102082.31
2022-08-28T19:19:16.333Z,102094.16
2022-08-28T19:21:44.572Z,102087.00
2022-08-28T19:24:16.352Z,102101.63
2022-08-28T19:26:44.867Z,102103.16
2022-08-28T19:29:13.773Z,102101.28
2022-08-28T19:31:42.577Z,102093.47
2022-08-28T19:34:13.016Z,102098.66
2022-08-28T19:36:41.730Z,102106.75
2022-08-28T19:39:09.983Z,102111.41
2022-08-28T19:41:38.839Z,102105.03
2022-08-28T19:44:08.278Z,102106.28
2022-08-28T19:46:38.801Z,102093.06
2022-08-28T19:49:07.828Z,102118.84
2022-08-28T19:51:39.960Z,102111.72
2022-08-28T19:54:11.111Z,102110.84
2022-08-28T19:56:40.011Z,102115.34
2022-08-28T19:59:10.503Z,102113.44
2022-08-28T20:01:43.655Z,102121.75
2022-08-28T20:04:13.435Z,102106.75
2022-08-28T20:06:43.498Z,102118.38
2022-08-28T20:09:13.048Z,102118.28
2022-08-28T20:11:45.032Z,102114.75
2022-08-28T20:14:14.451Z,102116.72
2022-08-28T20:16:45.294Z,102119.31
2022-08-28T20:19:14.583Z,102127.50
2022-08-28T20:21:47.122Z,102129.44
2022-08-28T20:24:20.291Z,102109.25
2022-08-28T20:26:49.330Z,102125.09
2022-08-28T20:29:18.695Z,102126.88
2022-08-28T20:31:49.143Z,102131.44
2022-08-28T20:34:19.958Z,102130.75
2022-08-28T20:36:50.679Z,102131.56
2022-08-28T20:39:19.674Z,102132.53
2022-08-28T20:41:49.225Z,102132.53
2022-08-28T20:44:21.009Z,102130.00
2022-08-28T20:46:51.528Z,102135.34
2022-08-28T20:49:22.488Z,102138.13
2022-08-28T20:51:56.717Z,102135.56
2022-08-28T20:54:30.033Z,102132.09
2022-08-28T20:57:02.973Z,102143.84
2022-08-28T20:59:34.562Z,102128.81
2022-08-28T21:02:10.946Z,102114.75
2022-08-28T21:04:40.041Z,102145.69
2022-08-28T21:07:12.932Z,102152.69
2022-08-28T21:10:05.739Z,102138.53
2022-08-28T21:12:29.841Z,102140.50
2022-08-28T21:14:59.673Z,102133.38
2022-08-28T21:17:30.217Z,102129.91
2022-08-28T21:20:02.964Z,102109.50
2022-08-28T21:22:35.254Z,102128.38
2022-08-28T21:25:05.718Z,102136.69
2022-08-28T21:27:34.110Z,102135.88
2022-08-28T21:30:02.809Z,102135.19
2022-08-28T21:32:33.914Z,102135.38
2022-08-28T21:35:02.519Z,102143.41
2022-08-28T21:37:31.229Z,102138.50
2022-08-28T21:40:01.787Z,102146.59
2022-08-28T21:42:30.464Z,102154.63
2022-08-28T21:44:58.937Z,102146.66
2022-08-28T21:47:27.582Z,102150.28
2022-08-28T21:49:58.163Z,102146.72
2022-08-28T21:52:28.385Z,102154.13
2022-08-28T21:55:00.507Z,102149.84
2022-08-28T21:57:29.968Z,102155.25
2022-08-28T21:59:58.667Z,102151.72
2022-08-28T22:02:27.554Z,102154.28
2022-08-28T22:04:55.982Z,102154.41
2022-08-28T22:07:25.201Z,102160.69
2022-08-28T22:09:53.652Z,102157.31
2022-08-28T22:12:23.388Z,102141.41
2022-08-28T22:14:52.048Z,102153.84
2022-08-28T22:17:20.681Z,102153.94
2022-08-28T22:19:48.942Z,102160.28
2022-08-28T22:22:35.642Z,102161.25
2022-08-28T22:25:05.838Z,102170.28
2022-08-28T22:27:35.599Z,102163.09
2022-08-28T22:30:04.882Z,102162.31
2022-08-28T22:32:33.374Z,102173.06
2022-08-28T22:35:01.751Z,102169.47
2022-08-28T22:37:30.115Z,102166.06
2022-08-28T22:39:59.217Z,102158.13
2022-08-28T22:42:27.508Z,102160.72
2022-08-28T22:44:57.233Z,102167.13
2022-08-28T22:47:25.651Z,102168.91
2022-08-28T22:49:58.360Z,102168.00
2022-08-28T22:52:27.041Z,102161.78
2022-08-28T22:54:55.411Z,102158.19
2022-08-28T22:57:23.951Z,102153.94
2022-08-28T22:59:52.308Z,102157.41
2022-08-28T23:02:27.133Z,102155.59
2022-08-28T23:04:55.967Z,102165.56
2022-08-28T23:07:24.281Z,102163.94
2022-08-28T23:09:52.601Z,102162.38
2022-08-28T23:12:20.964Z,102154.28
2022-08-28T23:14:49.437Z,102154.19
2022-08-28T23:17:18.696Z,102141.56
2022-08-28T23:19:49.111Z,102161.94
2022-08-28T23:22:19.187Z,102136.09
2022-08-28T23:24:48.796Z,102154.72
2022-08-28T23:27:36.090Z,102119.44
2022-08-28T23:30:07.757Z,102151.31
2022-08-28T23:32:36.097Z,102152.22
2022-08-28T23:35:08.172Z,102157.75
2022-08-28T23:37:38.665Z,102146.19
2022-08-28T23:40:11.610Z,102157.03
2022-08-28T23:42:40.687Z,102102.22
2022-08-28T23:45:10.740Z,102150.59
2022-08-28T23:47:40.679Z,102148.03
2022-08-28T23:50:15.838Z,102128.59
2022-08-28T23:52:44.672Z,102147.88
2022-08-28T23:55:14.685Z,102140.06
2022-08-28T23:57:44.051Z,102142.78
